createdAt,value
2019-05-14T00:00:15.358Z,1014.58
2019-05-14T00:01:12.377Z,1014.62
2019-05-14T00:02:11.944Z,1014.71
2019-05-14T00:03:06.541Z,1014.66
2019-05-14T00:04:03.432Z,1014.68
2019-05-14T00:05:01.721Z,1014.57
2019-05-14T00:05:57.461Z,1014.66
2019-05-14T00:06:54.502Z,1014.65
2019-05-14T00:07:52.169Z,1014.70
2019-05-14T00:08:48.566Z,1014.73
2019-05-14T00:09:45.508Z,1014.69
2019-05-14T00:10:42.468Z,1014.70
2019-05-14T00:11:41.855Z,1014.69
2019-05-14T00:12:36.519Z,1014.65
2019-05-14T00:13:33.555Z,1014.59
2019-05-14T00:14:39.814Z,1014.53
2019-05-14T00:15:27.544Z,1014.57
2019-05-14T00:16:24.565Z,1014.55
2019-05-14T00:17:21.661Z,1014.54
2019-05-14T00:18:18.560Z,1014.62
2019-05-14T00:19:15.577Z,1014.58
2019-05-14T00:20:13.529Z,1014.52
2019-05-14T00:21:12.022Z,1014.54
2019-05-14T00:22:06.599Z,1014.54
2019-05-14T00:23:03.725Z,1014.61
2019-05-14T00:24:01.837Z,1014.55
2019-05-14T00:24:57.692Z,1014.44
2019-05-14T00:25:54.637Z,1014.56
2019-05-14T00:26:51.841Z,1014.57
2019-05-14T00:27:48.707Z,1014.50
2019-05-14T00:28:45.696Z,1014.50
2019-05-14T00:29:42.695Z,1014.50
2019-05-14T00:30:42.102Z,1014.44
2019-05-14T00:31:36.763Z,1014.51
2019-05-14T00:32:33.690Z,1014.56
2019-05-14T00:33:31.578Z,1014.62
2019-05-14T00:34:27.868Z,1014.59
2019-05-14T00:35:24.719Z,1014.60
2019-05-14T00:36:21.739Z,1014.60
2019-05-14T00:37:18.776Z,1014.58
2019-05-14T00:38:15.814Z,1014.55
2019-05-14T00:39:12.794Z,1014.59
2019-05-14T00:40:11.767Z,1014.57
2019-05-14T00:41:06.940Z,1014.53
2019-05-14T00:42:03.907Z,1014.58
2019-05-14T00:43:02.643Z,1014.56
2019-05-14T00:43:57.856Z,1014.54
2019-05-14T00:44:57.955Z,1014.42
2019-05-14T00:45:51.836Z,1014.37
2019-05-14T00:50:36.695Z,1004.43
2019-05-14T00:51:33.772Z,1014.42
2019-05-14T00:52:31.486Z,1014.28
2019-05-14T00:53:27.841Z,1014.30
2019-05-14T00:54:24.825Z,1014.37
2019-05-14T00:55:22.379Z,1014.30
2019-05-14T00:56:18.786Z,1014.29
2019-05-14T00:57:15.836Z,1014.23
2019-05-14T00:58:12.825Z,1014.24
2019-05-14T00:59:11.373Z,1014.27
2019-05-14T01:00:06.899Z,1014.25
2019-05-14T01:01:03.817Z,1014.26
2019-05-14T01:02:03.083Z,1014.28
2019-05-14T01:02:57.867Z,1014.24
2019-05-14T01:03:54.833Z,1014.15
2019-05-14T01:04:51.874Z,1014.18
2019-05-14T01:05:48.970Z,1014.21
2019-05-14T01:06:45.958Z,1014.17
2019-05-14T01:07:42.992Z,1014.20
2019-05-14T01:08:41.358Z,1014.16
2019-05-14T01:09:37.052Z,1014.18
2019-05-14T01:10:34.021Z,1014.18
2019-05-14T01:11:31.523Z,1014.20
2019-05-14T01:12:28.043Z,1014.13
2019-05-14T01:13:24.983Z,1014.28
2019-05-14T01:14:22.115Z,1014.12
2019-05-14T01:15:18.965Z,1014.23
2019-05-14T01:16:16.073Z,1014.23
2019-05-14T01:17:13.112Z,1014.17
2019-05-14T01:18:11.397Z,1014.12
2019-05-14T01:19:07.084Z,1014.03
2019-05-14T01:20:04.081Z,1014.12
2019-05-14T01:21:01.292Z,1014.13
2019-05-14T01:21:58.035Z,1014.21
2019-05-14T01:22:55.146Z,1014.21
2019-05-14T01:23:52.092Z,1014.22
2019-05-14T01:24:49.118Z,1014.18
2019-05-14T01:25:46.059Z,1014.22
2019-05-14T01:26:43.094Z,1014.24
2019-05-14T01:27:41.320Z,1014.15
2019-05-14T01:28:37.309Z,1014.09
2019-05-14T01:29:34.149Z,1014.14
2019-05-14T01:30:31.970Z,1014.06
2019-05-14T01:31:28.300Z,1014.18
2019-05-14T01:32:25.129Z,1014.17
2019-05-14T01:33:22.165Z,1014.09
2019-05-14T01:34:21.475Z,1014.15
2019-05-14T01:35:16.242Z,1014.15
2019-05-14T01:36:13.164Z,1014.20
2019-05-14T01:37:11.665Z,1014.18
2019-05-14T01:38:07.324Z,1014.20
2019-05-14T01:39:04.312Z,1014.16
2019-05-14T01:40:01.361Z,1014.27
2019-05-14T01:40:58.283Z,1014.16
2019-05-14T01:41:55.303Z,1014.27
2019-05-14T01:42:52.445Z,1014.29
2019-05-14T01:43:51.292Z,1014.23
2019-05-14T01:44:46.298Z,1014.28
2019-05-14T01:45:43.329Z,1014.30
2019-05-14T01:46:42.028Z,1014.28
2019-05-14T01:47:37.407Z,1014.34
2019-05-14T01:48:34.356Z,1014.17
2019-05-14T01:49:31.911Z,1014.18
2019-05-14T01:50:28.317Z,1014.26
2019-05-14T01:51:25.355Z,1014.23
2019-05-14T01:52:22.412Z,1014.25
2019-05-14T01:53:21.856Z,1014.28
2019-05-14T01:54:16.390Z,1014.22
2019-05-14T01:55:13.438Z,1014.23
2019-05-14T01:56:11.981Z,1014.29
2019-05-14T01:57:07.492Z,1014.25
2019-05-14T01:58:04.418Z,1014.19
2019-05-14T01:59:01.825Z,1014.16
2019-05-14T01:59:58.500Z,1014.15
2019-05-14T02:00:55.418Z,1014.17
2019-05-14T02:01:52.495Z,1014.17
2019-05-14T02:02:52.226Z,1014.06
2019-05-14T02:03:46.653Z,1014.08
2019-05-14T02:04:43.465Z,1014.08
2019-05-14T02:05:41.647Z,1014.19
2019-05-14T02:06:37.546Z,1014.19
2019-05-14T02:07:34.492Z,1014.11
2019-05-14T02:08:32.181Z,1014.07
2019-05-14T02:09:30.594Z,1014.19
2019-05-14T02:10:25.628Z,1014.13
2019-05-14T02:11:22.632Z,1014.15
2019-05-14T02:12:22.155Z,1014.14
2019-05-14T02:13:16.603Z,1014.09
2019-05-14T02:14:13.650Z,1014.09
2019-05-14T02:15:11.998Z,1014.14
2019-05-14T02:16:07.623Z,1014.15
2019-05-14T02:17:04.661Z,1014.21
2019-05-14T02:18:02.370Z,1014.19
2019-05-14T02:19:01.212Z,1014.14
2019-05-14T02:19:55.695Z,1014.19
2019-05-14T02:20:52.711Z,1014.15
2019-05-14T02:21:51.420Z,1014.22
2019-05-14T02:22:46.721Z,1014.13
2019-05-14T02:23:43.804Z,1014.12
2019-05-14T02:24:41.747Z,1014.24
2019-05-14T02:25:37.679Z,1014.19
2019-05-14T02:26:34.728Z,1014.13
2019-05-14T02:27:34.920Z,1014.17
2019-05-14T02:28:28.824Z,1014.21
2019-05-14T02:29:25.823Z,1014.13
2019-05-14T02:30:28.500Z,1014.11
2019-05-14T02:31:20.340Z,1014.08
2019-05-14T02:32:18.418Z,1014.07
2019-05-14T02:33:13.981Z,1014.09
2019-05-14T02:34:10.874Z,1014.07
2019-05-14T02:35:09.947Z,1014.15
2019-05-14T02:36:04.775Z,1014.09
2019-05-14T02:37:01.909Z,1014.08
2019-05-14T02:37:59.766Z,1014.10
2019-05-14T02:38:55.807Z,1014.04
2019-05-14T02:39:52.970Z,1014.03
2019-05-14T02:40:49.910Z,1013.98
2019-05-14T02:41:49.665Z,1014.05
2019-05-14T02:42:43.925Z,1013.98
2019-05-14T02:43:41.250Z,1014.11
2019-05-14T02:44:40.829Z,1014.03
2019-05-14T02:45:34.955Z,1014.05
2019-05-14T02:46:31.888Z,1014.01
2019-05-14T02:47:29.781Z,1013.99
2019-05-14T02:48:28.990Z,1014.00
2019-05-14T02:49:23.035Z,1014.02
2019-05-14T02:50:20.384Z,1013.90
2019-05-14T02:51:19.953Z,1013.91
2019-05-14T02:52:14.005Z,1013.91
2019-05-14T02:53:10.966Z,1013.83
2019-05-14T02:54:10.047Z,1013.82
2019-05-14T02:55:05.219Z,1013.77
2019-05-14T02:56:02.050Z,1013.80
2019-05-14T02:56:59.936Z,1013.86
2019-05-14T02:57:59.518Z,1013.89
2019-05-14T02:58:53.068Z,1013.81
2019-05-14T02:59:50.569Z,1013.74
2019-05-14T03:00:49.185Z,1013.75
2019-05-14T03:01:44.064Z,1013.79
2019-05-14T03:02:41.121Z,1013.74
2019-05-14T03:03:40.076Z,1013.78
2019-05-14T03:04:35.125Z,1013.74
2019-05-14T03:05:32.250Z,1013.69
2019-05-14T03:06:29.366Z,1013.73
2019-05-14T03:07:26.193Z,1013.78
2019-05-14T03:08:23.140Z,1013.84
2019-05-14T03:09:20.616Z,1013.77
2019-05-14T03:10:19.455Z,1013.90
2019-05-14T03:11:14.159Z,1013.84
2019-05-14T03:12:11.220Z,1013.75
2019-05-14T03:13:09.502Z,1013.71
2019-05-14T03:14:08.825Z,1013.70
2019-05-14T03:15:02.320Z,1013.68
2019-05-14T03:15:59.705Z,1013.63
2019-05-14T03:16:59.205Z,1013.70
2019-05-14T03:17:53.339Z,1013.75
2019-05-14T03:18:50.663Z,1013.72
2019-05-14T03:19:49.609Z,1013.61
2019-05-14T03:20:44.235Z,1013.70
2019-05-14T03:21:41.287Z,1013.59
2019-05-14T03:22:55.909Z,1013.72
2019-05-14T03:23:35.331Z,1013.69
2019-05-14T03:24:32.404Z,1013.67
2019-05-14T03:25:30.300Z,1013.59
2019-05-14T03:26:29.354Z,1013.66
2019-05-14T03:27:23.390Z,1013.68
2019-05-14T03:28:20.412Z,1013.64
2019-05-14T03:29:19.590Z,1013.57
2019-05-14T03:30:14.404Z,1013.60
2019-05-14T03:31:13.064Z,1013.61
2019-05-14T03:32:12.753Z,1013.72
2019-05-14T03:33:05.431Z,1013.56
2019-05-14T03:34:03.775Z,1013.66
2019-05-14T03:35:03.966Z,1013.69
2019-05-14T03:36:01.442Z,1013.75
2019-05-14T03:36:53.794Z,1013.70
2019-05-14T03:37:50.577Z,1013.60
2019-05-14T03:38:50.140Z,1013.60
2019-05-14T03:39:44.537Z,1013.60
2019-05-14T03:40:41.586Z,1013.64
2019-05-14T03:41:39.627Z,1013.57
2019-05-14T03:42:35.597Z,1013.60
2019-05-14T03:43:32.538Z,1013.56
2019-05-14T03:44:29.588Z,1013.59
2019-05-14T03:45:29.674Z,1013.50
2019-05-14T03:46:41.089Z,1013.57
2019-05-14T03:47:20.591Z,1013.67
2019-05-14T03:48:19.097Z,1013.54
2019-05-14T03:49:14.719Z,1013.48
2019-05-14T03:50:11.594Z,1013.48
2019-05-14T03:51:09.204Z,1013.50
2019-05-14T03:52:05.552Z,1013.54
2019-05-14T03:53:02.715Z,1013.53
2019-05-14T03:54:05.845Z,1013.50
2019-05-14T03:55:01.187Z,1013.47
2019-05-14T03:55:53.763Z,1013.48
2019-05-14T03:56:50.718Z,1013.44
2019-05-14T03:57:49.995Z,1013.49
2019-05-14T03:58:44.726Z,1013.51
2019-05-14T03:59:41.823Z,1013.58
2019-05-14T04:00:39.159Z,1013.54
2019-05-14T04:01:35.763Z,1013.49
2019-05-14T04:02:32.730Z,1013.39
2019-05-14T04:03:29.809Z,1013.41
2019-05-14T04:04:29.766Z,1013.45
2019-05-14T04:05:23.762Z,1013.37
2019-05-14T04:06:20.815Z,1013.45
2019-05-14T04:07:19.598Z,1013.40
2019-05-14T04:08:14.808Z,1013.31
2019-05-14T04:09:11.828Z,1013.36
2019-05-14T04:10:10.306Z,1013.40
2019-05-14T04:11:09.332Z,1013.38
2019-05-14T04:12:02.853Z,1013.41
2019-05-14T04:12:59.966Z,1013.42
2019-05-14T04:13:59.899Z,1013.33
2019-05-14T04:14:53.834Z,1013.33
2019-05-14T04:15:50.860Z,1013.51
2019-05-14T04:17:01.319Z,1013.42
2019-05-14T04:17:44.877Z,1013.50
2019-05-14T04:18:41.887Z,1013.45
2019-05-14T04:19:39.590Z,1013.55
2019-05-14T04:20:39.128Z,1013.52
2019-05-14T04:21:32.888Z,1013.48
2019-05-14T04:22:30.098Z,1013.53
2019-05-14T04:23:28.969Z,1013.60
2019-05-14T04:24:23.988Z,1013.59
2019-05-14T04:25:20.921Z,1013.57
2019-05-14T04:26:19.981Z,1013.59
2019-05-14T04:27:15.017Z,1013.61
2019-05-14T04:28:12.065Z,1013.49
2019-05-14T04:29:10.196Z,1013.55
2019-05-14T04:30:09.270Z,1013.60
2019-05-14T04:31:03.130Z,1013.62
2019-05-14T04:32:00.460Z,1013.58
2019-05-14T04:32:59.418Z,1013.55
2019-05-14T04:33:54.048Z,1013.58
2019-05-14T04:34:51.097Z,1013.60
2019-05-14T04:35:49.086Z,1013.53
2019-05-14T04:36:45.233Z,1013.63
2019-05-14T04:37:42.188Z,1013.55
2019-05-14T04:38:41.014Z,1013.60
2019-05-14T04:39:39.254Z,1013.63
2019-05-14T04:40:33.114Z,1013.66
2019-05-14T04:41:30.351Z,1013.67
2019-05-14T04:42:29.471Z,1013.59
2019-05-14T04:43:24.116Z,1013.60
2019-05-14T04:44:21.197Z,1013.60
2019-05-14T04:45:19.713Z,1013.65
2019-05-14T04:46:15.222Z,1013.66
2019-05-14T04:47:26.095Z,1013.61
2019-05-14T04:48:27.103Z,1013.69
2019-05-14T04:49:09.337Z,1013.72
2019-05-14T04:50:03.190Z,1013.62
2019-05-14T04:51:00.758Z,1013.50
2019-05-14T04:51:59.482Z,1013.64
2019-05-14T04:52:54.205Z,1013.65
2019-05-14T04:53:51.309Z,1013.58
2019-05-14T04:54:49.932Z,1013.62
2019-05-14T04:55:45.297Z,1013.59
2019-05-14T04:56:42.252Z,1013.56
2019-05-14T04:57:39.664Z,1013.59
2019-05-14T04:58:39.773Z,1013.63
2019-05-14T04:59:33.264Z,1013.61
2019-05-14T05:00:30.765Z,1013.59
2019-05-14T05:01:29.440Z,1013.55
2019-05-14T05:02:24.450Z,1013.58
2019-05-14T05:03:21.334Z,1013.53
2019-05-14T05:04:20.333Z,1013.56
2019-05-14T05:05:15.367Z,1013.60
2019-05-14T05:06:12.317Z,1013.48
2019-05-14T05:07:10.085Z,1013.50
2019-05-14T05:08:09.051Z,1013.53
2019-05-14T05:09:03.484Z,1013.47
2019-05-14T05:10:00.377Z,1013.50
2019-05-14T05:11:00.007Z,1013.52
2019-05-14T05:11:54.363Z,1013.47
2019-05-14T05:12:51.483Z,1013.52
2019-05-14T05:13:48.778Z,1013.58
2019-05-14T05:14:45.434Z,1013.51
2019-05-14T05:15:42.486Z,1013.48
2019-05-14T05:16:39.444Z,1013.59
2019-05-14T05:17:44.314Z,1013.51
2019-05-14T05:18:33.535Z,1013.52
2019-05-14T05:19:30.565Z,1013.51
2019-05-14T05:20:29.125Z,1013.52
2019-05-14T05:21:24.511Z,1013.51
2019-05-14T05:22:21.459Z,1013.45
2019-05-14T05:23:19.003Z,1013.41
2019-05-14T05:24:15.494Z,1013.42
2019-05-14T05:25:12.553Z,1013.45
2019-05-14T05:26:09.579Z,1013.47
2019-05-14T05:27:09.088Z,1013.48
2019-05-14T05:28:03.716Z,1013.48
2019-05-14T05:29:06.500Z,1013.54
2019-05-14T05:29:58.936Z,1013.51
2019-05-14T05:30:54.558Z,1013.47
2019-05-14T05:31:51.613Z,1013.51
2019-05-14T05:32:49.489Z,1013.52
2019-05-14T05:33:45.686Z,1013.50
2019-05-14T05:34:42.644Z,1013.59
2019-05-14T05:35:42.331Z,1013.50
2019-05-14T05:36:38.048Z,1013.53
2019-05-14T05:37:34.244Z,1013.59
2019-05-14T05:38:30.695Z,1013.53
2019-05-14T05:39:28.377Z,1013.62
2019-05-14T05:40:24.764Z,1013.65
2019-05-14T05:41:21.758Z,1013.47
2019-05-14T05:42:19.044Z,1013.48
2019-05-14T05:43:15.766Z,1013.54
2019-05-14T05:44:12.776Z,1013.56
2019-05-14T05:45:09.717Z,1013.60
2019-05-14T05:46:08.654Z,1013.57
2019-05-14T05:47:03.785Z,1013.62
2019-05-14T05:48:01.797Z,1013.53
2019-05-14T05:48:58.726Z,1013.58
2019-05-14T05:49:54.791Z,1013.58
2019-05-14T05:50:51.971Z,1013.56
2019-05-14T05:51:48.768Z,1013.51
2019-05-14T05:52:45.823Z,1013.51
2019-05-14T05:53:42.909Z,1013.45
2019-05-14T05:54:39.931Z,1013.46
2019-05-14T05:55:39.244Z,1013.51
2019-05-14T05:56:33.875Z,1013.41
2019-05-14T05:57:30.908Z,1013.36
2019-05-14T05:58:29.815Z,1013.35
2019-05-14T05:59:24.881Z,1013.36
2019-05-14T06:00:22.004Z,1013.30
2019-05-14T06:01:19.774Z,1013.45
2019-05-14T06:02:18.383Z,1013.42
2019-05-14T06:03:12.947Z,1013.36
2019-05-14T06:04:10.044Z,1013.24
2019-05-14T06:05:08.047Z,1013.33
2019-05-14T06:06:03.972Z,1013.42
2019-05-14T06:07:02.745Z,1013.22
2019-05-14T06:07:59.074Z,1013.38
2019-05-14T06:08:54.946Z,1013.31
2019-05-14T06:09:52.016Z,1013.31
2019-05-14T06:10:49.169Z,1013.35
2019-05-14T06:11:48.556Z,1013.29
2019-05-14T06:12:42.978Z,1013.31
2019-05-14T06:13:40.110Z,1013.26
2019-05-14T06:14:38.193Z,1013.23
2019-05-14T06:15:44.518Z,1013.27
2019-05-14T06:16:31.073Z,1013.28
2019-05-14T06:17:28.516Z,1013.26
2019-05-14T06:18:25.109Z,1013.31
2019-05-14T06:19:22.051Z,1013.23
2019-05-14T06:20:19.119Z,1013.28
2019-05-14T06:21:18.654Z,1013.29
2019-05-14T06:22:13.234Z,1013.36
2019-05-14T06:23:10.088Z,1013.34
2019-05-14T06:24:09.026Z,1013.30
2019-05-14T06:25:04.207Z,1013.39
2019-05-14T06:26:01.220Z,1013.44
2019-05-14T06:26:58.751Z,1013.46
2019-05-14T06:27:55.383Z,1013.39
2019-05-14T06:28:52.234Z,1013.43
2019-05-14T06:29:49.157Z,1013.35
2019-05-14T06:30:48.310Z,1013.36
2019-05-14T06:31:43.224Z,1013.25
2019-05-14T06:32:40.275Z,1013.35
2019-05-14T06:33:39.408Z,1013.42
2019-05-14T06:34:34.324Z,1013.30
2019-05-14T06:35:31.264Z,1013.30
2019-05-14T06:36:29.081Z,1013.31
2019-05-14T06:37:25.281Z,1013.30
2019-05-14T06:38:22.418Z,1013.36
2019-05-14T06:39:19.523Z,1013.38
2019-05-14T06:40:16.246Z,1013.39
2019-05-14T06:41:13.288Z,1013.38
2019-05-14T06:42:10.325Z,1013.38
2019-05-14T06:43:09.143Z,1013.36
2019-05-14T06:44:04.521Z,1013.39
2019-05-14T06:45:01.377Z,1013.42
2019-05-14T06:45:58.747Z,1013.44
2019-05-14T06:46:55.413Z,1013.55
2019-05-14T06:47:52.489Z,1013.56
2019-05-14T06:48:49.405Z,1013.53
2019-05-14T06:49:48.591Z,1013.54
2019-05-14T06:50:43.394Z,1013.58
2019-05-14T06:51:40.436Z,1013.52
2019-05-14T06:52:38.795Z,1013.45
2019-05-14T06:53:34.473Z,1013.54
2019-05-14T06:54:31.503Z,1013.43
2019-05-14T06:55:28.500Z,1013.39
2019-05-14T06:56:28.051Z,1013.26
2019-05-14T06:57:22.416Z,1013.21
2019-05-14T06:58:20.487Z,1013.33
2019-05-14T06:59:18.167Z,1013.42
2019-05-14T07:00:13.528Z,1013.39
2019-05-14T07:01:10.560Z,1013.28
2019-05-14T07:02:08.774Z,1013.33
2019-05-14T07:03:04.566Z,1013.31
2019-05-14T07:04:01.571Z,1013.31
2019-05-14T07:04:59.093Z,1013.21
2019-05-14T07:05:55.586Z,1013.23
2019-05-14T07:06:52.616Z,1013.28
2019-05-14T07:07:49.654Z,1013.22
2019-05-14T07:08:48.649Z,1013.30
2019-05-14T07:09:43.686Z,1013.14
2019-05-14T07:10:40.630Z,1013.16
2019-05-14T07:11:38.854Z,1013.16
2019-05-14T07:12:34.640Z,1013.00
2019-05-14T07:13:31.676Z,1012.44
2019-05-14T07:14:28.588Z,1011.66
2019-05-14T07:15:25.698Z,1011.50
2019-05-14T07:16:22.674Z,1011.99
2019-05-14T07:17:19.724Z,1012.09
2019-05-14T07:18:18.864Z,1012.03
2019-05-14T07:19:15.801Z,1012.49
2019-05-14T07:20:10.904Z,1013.57
2019-05-14T07:21:08.273Z,1014.17
2019-05-14T07:22:04.679Z,1013.83
2019-05-14T07:23:01.809Z,1013.54
2019-05-14T07:23:59.334Z,1013.32
2019-05-14T07:24:55.828Z,1013.80
2019-05-14T07:25:52.805Z,1014.00
2019-05-14T07:26:49.797Z,1014.01
2019-05-14T07:27:48.875Z,1014.11
2019-05-14T07:28:43.734Z,1014.00
2019-05-14T07:29:40.802Z,1014.02
2019-05-14T07:30:39.555Z,1013.83
2019-05-14T07:31:34.886Z,1014.05
2019-05-14T07:32:31.809Z,1013.87
2019-05-14T07:33:29.487Z,1013.55
2019-05-14T07:34:28.095Z,1013.76
2019-05-14T07:35:22.911Z,1013.55
2019-05-14T07:36:19.863Z,1013.73
2019-05-14T07:37:18.062Z,1013.50
2019-05-14T07:38:13.893Z,1013.21
2019-05-14T07:39:10.849Z,1013.06
2019-05-14T07:40:08.574Z,1012.92
2019-05-14T07:41:05.002Z,1013.18
2019-05-14T07:42:01.968Z,1013.33
2019-05-14T07:42:58.919Z,1013.15
2019-05-14T07:43:58.411Z,1013.01
2019-05-14T07:44:52.976Z,1013.09
2019-05-14T07:45:50.085Z,1012.92
2019-05-14T07:46:48.377Z,1012.96
2019-05-14T07:47:43.990Z,1012.86
2019-05-14T07:48:41.040Z,1012.85
2019-05-14T07:49:38.711Z,1013.14
2019-05-14T07:50:34.942Z,1012.97
2019-05-14T07:51:32.042Z,1013.05
2019-05-14T07:52:29.087Z,1013.00
2019-05-14T07:53:36.074Z,1013.05
2019-05-14T07:54:23.154Z,1013.09
2019-05-14T07:55:20.059Z,1013.14
2019-05-14T07:56:18.679Z,1013.09
2019-05-14T07:57:14.024Z,1013.23
2019-05-14T07:58:11.148Z,1013.40
2019-05-14T07:59:08.930Z,1013.29
2019-05-14T08:00:05.346Z,1013.21
2019-05-14T08:01:02.180Z,1013.14
2019-05-14T08:01:59.110Z,1013.08
2019-05-14T08:02:58.079Z,1013.08
2019-05-14T08:03:53.150Z,1012.74
2019-05-14T08:04:50.214Z,1012.93
2019-05-14T08:05:48.290Z,1013.19
2019-05-14T08:06:44.196Z,1012.79
2019-05-14T08:07:41.182Z,1012.58
2019-05-14T08:08:38.732Z,1012.41
2019-05-14T08:09:35.305Z,1012.71
2019-05-14T08:10:32.249Z,1013.07
2019-05-14T08:11:29.484Z,1013.08
2019-05-14T08:12:28.387Z,1013.29
2019-05-14T08:13:23.252Z,1012.90
2019-05-14T08:14:20.411Z,1013.17
2019-05-14T08:15:19.934Z,1012.60
2019-05-14T08:16:14.567Z,1012.24
2019-05-14T08:17:11.299Z,1012.75
2019-05-14T08:18:08.377Z,1013.08
2019-05-14T08:19:23.039Z,1012.95
2019-05-14T08:20:02.320Z,1013.22
2019-05-14T08:20:59.534Z,1012.81
2019-05-14T08:21:58.540Z,1012.93
2019-05-14T08:22:53.330Z,1013.39
2019-05-14T08:23:50.365Z,1013.64
2019-05-14T08:24:48.983Z,1013.17
2019-05-14T08:25:44.542Z,1012.82
2019-05-14T08:26:42.881Z,1012.75
2019-05-14T08:27:38.880Z,1012.95
2019-05-14T08:28:35.486Z,1012.94
2019-05-14T08:29:32.551Z,1013.00
2019-05-14T08:30:29.529Z,1012.84
2019-05-14T08:31:29.078Z,1012.76
2019-05-14T08:32:23.515Z,1012.75
2019-05-14T08:33:20.535Z,1012.55
2019-05-14T08:34:19.182Z,1012.41
2019-05-14T08:35:14.543Z,1012.48
2019-05-14T08:36:11.576Z,1013.65
2019-05-14T08:37:08.494Z,1012.12
2019-05-14T08:38:08.593Z,1012.13
2019-05-14T08:39:02.600Z,1014.58
2019-05-14T08:39:59.595Z,1014.54
2019-05-14T08:40:58.739Z,1011.52
2019-05-14T08:41:59.516Z,1010.55
2019-05-14T08:42:50.601Z,1011.20
2019-05-14T08:43:48.985Z,1011.02
2019-05-14T08:44:48.023Z,1011.65
2019-05-14T08:45:41.627Z,1013.30
2019-05-14T08:46:39.014Z,1015.87
2019-05-14T08:47:35.683Z,1015.82
2019-05-14T08:48:32.658Z,1014.85
2019-05-14T08:49:38.919Z,1010.80
2019-05-14T08:50:28.139Z,1011.30
2019-05-14T08:51:23.778Z,1010.90
2019-05-14T08:52:20.675Z,1014.61
2019-05-14T08:53:18.565Z,1012.81
2019-05-14T08:54:14.748Z,1012.77
2019-05-14T08:55:14.119Z,1012.93
2019-05-14T08:56:12.094Z,1010.67
2019-05-14T08:57:05.841Z,1011.51
2019-05-14T08:58:02.848Z,1010.68
2019-05-14T08:58:59.728Z,1013.89
2019-05-14T08:59:59.410Z,1014.50
2019-05-14T09:00:53.803Z,1011.44
2019-05-14T09:02:01.895Z,1011.43
2019-05-14T09:02:48.546Z,1012.78
2019-05-14T09:03:44.856Z,1013.08
2019-05-14T09:04:43.375Z,1014.41
2019-05-14T09:05:38.874Z,1012.33
2019-05-14T09:06:38.282Z,1013.87
2019-05-14T09:07:32.862Z,1013.21
2019-05-14T09:08:29.937Z,1010.99
2019-05-14T09:09:29.016Z,1013.03
2019-05-14T09:10:23.910Z,1014.87
2019-05-14T09:11:24.580Z,1011.07
2019-05-14T09:12:18.815Z,1010.26
2019-05-14T09:13:14.873Z,1010.64
2019-05-14T09:14:11.972Z,1011.06
2019-05-14T09:15:09.771Z,1011.12
2019-05-14T09:16:05.977Z,1011.41
2019-05-14T09:17:02.928Z,1015.09
2019-05-14T09:18:03.384Z,1012.63
2019-05-14T09:18:58.183Z,1011.80
2019-05-14T09:20:02.084Z,1011.92
2019-05-14T09:20:50.992Z,1011.82
2019-05-14T09:21:49.608Z,1013.61
2019-05-14T09:22:45.147Z,1016.02
2019-05-14T09:23:41.983Z,1016.05
2019-05-14T09:24:39.048Z,1015.46
2019-05-14T09:25:45.539Z,1010.82
2019-05-14T09:26:33.114Z,1011.13
2019-05-14T09:27:30.127Z,1013.65
2019-05-14T09:28:28.542Z,1013.01
2019-05-14T09:30:09.316Z,1015.09
2019-05-14T09:30:21.058Z,1014.86
2019-05-14T09:31:19.772Z,1014.22
2019-05-14T09:32:15.216Z,1013.54
2019-05-14T09:33:12.156Z,1013.20
2019-05-14T09:34:09.353Z,1013.09
2019-05-14T09:35:06.190Z,1012.89
2019-05-14T09:36:17.639Z,1010.75
2019-05-14T09:37:00.300Z,1008.60
2019-05-14T09:37:59.242Z,1010.85
2019-05-14T09:38:54.217Z,1014.00
2019-05-14T09:39:51.206Z,1013.01
2019-05-14T09:40:49.044Z,1013.84
2019-05-14T09:41:45.285Z,1013.77
2019-05-14T09:42:42.312Z,1013.46
2019-05-14T09:43:39.471Z,1013.08
2019-05-14T09:44:38.451Z,1012.75
2019-05-14T09:45:33.237Z,1012.94
2019-05-14T09:46:30.361Z,1012.94
2019-05-14T09:47:28.208Z,1012.00
2019-05-14T09:48:24.242Z,1012.50
2019-05-14T09:49:21.327Z,1012.76
2019-05-14T09:50:22.236Z,1012.71
2019-05-14T09:51:15.360Z,1012.61
2019-05-14T09:52:12.378Z,1012.47
2019-05-14T09:53:09.848Z,1012.35
2019-05-14T09:54:08.363Z,1012.23
2019-05-14T09:55:03.336Z,1011.82
2019-05-14T09:56:00.302Z,1009.65
2019-05-14T09:56:59.113Z,1011.71
2019-05-14T09:57:54.516Z,1012.75
2019-05-14T09:58:51.391Z,1013.11
2019-05-14T09:59:48.386Z,1013.19
2019-05-14T10:00:48.321Z,1012.93
2019-05-14T10:01:42.500Z,1012.17
2019-05-14T10:02:39.573Z,1012.21
2019-05-14T10:03:38.689Z,1012.74
2019-05-14T10:04:33.508Z,1012.70
2019-05-14T10:05:30.442Z,1012.56
2019-05-14T10:06:28.428Z,1012.79
2019-05-14T10:07:24.603Z,1012.73
2019-05-14T10:08:21.432Z,1012.31
2019-05-14T10:09:18.497Z,1012.11
2019-05-14T10:10:19.369Z,1012.04
2019-05-14T10:11:12.568Z,1011.95
2019-05-14T10:12:09.462Z,1011.82
2019-05-14T10:13:09.522Z,1012.30
2019-05-14T10:14:03.618Z,1012.48
2019-05-14T10:15:00.625Z,1012.55
2019-05-14T10:15:58.874Z,1012.57
2019-05-14T10:16:54.551Z,1012.74
2019-05-14T10:17:51.599Z,1012.21
2019-05-14T10:18:52.237Z,1011.95
2019-05-14T10:19:45.620Z,1012.42
2019-05-14T10:20:45.949Z,1012.43
2019-05-14T10:21:39.638Z,1012.32
2019-05-14T10:22:36.655Z,1012.36
2019-05-14T10:23:33.694Z,1012.27
2019-05-14T10:24:30.688Z,1011.31
2019-05-14T10:25:28.759Z,1011.10
2019-05-14T10:26:24.719Z,1011.31
2019-05-14T10:27:21.741Z,1011.59
2019-05-14T10:28:19.327Z,1011.55
2019-05-14T10:29:15.628Z,1011.94
2019-05-14T10:30:12.701Z,1012.55
2019-05-14T10:31:13.061Z,1013.17
2019-05-14T10:32:08.696Z,1013.03
2019-05-14T10:33:09.473Z,1012.74
2019-05-14T10:34:00.706Z,1012.48
2019-05-14T10:34:58.996Z,1012.50
2019-05-14T10:35:54.823Z,1012.33
2019-05-14T10:36:51.809Z,1012.23
2019-05-14T10:37:48.799Z,1012.19
2019-05-14T10:38:45.727Z,1011.98
2019-05-14T10:39:42.770Z,1012.15
2019-05-14T10:40:39.734Z,1012.08
2019-05-14T10:41:38.513Z,1012.14
2019-05-14T10:42:33.929Z,1012.13
2019-05-14T10:43:30.794Z,1011.99
2019-05-14T10:44:29.309Z,1011.22
2019-05-14T10:45:24.867Z,1010.83
2019-05-14T10:46:21.929Z,1011.07
2019-05-14T10:47:18.965Z,1011.27
2019-05-14T10:48:15.879Z,1011.21
2019-05-14T10:49:22.622Z,1011.57
2019-05-14T10:50:13.888Z,1011.61
2019-05-14T10:51:06.866Z,1012.54
2019-05-14T10:52:03.971Z,1012.58
2019-05-14T10:53:00.952Z,1012.98
2019-05-14T10:53:59.357Z,1012.96
2019-05-14T10:54:56.180Z,1012.83
2019-05-14T10:55:51.997Z,1012.92
2019-05-14T10:56:49.577Z,1012.09
2019-05-14T10:57:45.937Z,1011.74
2019-05-14T10:58:43.063Z,1012.37
2019-05-14T10:59:40.003Z,1012.68
2019-05-14T11:00:41.576Z,1012.77
2019-05-14T11:01:34.030Z,1011.83
2019-05-14T11:02:31.159Z,1011.27
2019-05-14T11:03:30.088Z,1011.13
2019-05-14T11:04:24.985Z,1011.84
2019-05-14T11:05:22.019Z,1012.36
2019-05-14T11:06:19.181Z,1011.37
2019-05-14T11:07:18.412Z,1011.64
2019-05-14T11:08:13.043Z,1012.35
2019-05-14T11:09:10.091Z,1012.48
2019-05-14T11:10:09.047Z,1012.62
2019-05-14T11:11:04.466Z,1012.51
2019-05-14T11:12:01.123Z,1011.23
2019-05-14T11:12:59.420Z,1010.91
2019-05-14T11:13:55.174Z,1011.53
2019-05-14T11:14:52.095Z,1012.09
2019-05-14T11:15:49.177Z,1011.74
2019-05-14T11:16:48.404Z,1010.80
2019-05-14T11:17:43.190Z,1011.08
2019-05-14T11:18:40.297Z,1011.47
2019-05-14T11:19:38.995Z,1011.79
2019-05-14T11:20:34.214Z,1012.18
2019-05-14T11:21:31.191Z,1012.27
2019-05-14T11:22:28.861Z,1012.42
2019-05-14T11:23:25.359Z,1012.29
2019-05-14T11:24:22.475Z,1012.26
2019-05-14T11:25:19.713Z,1011.48
2019-05-14T11:26:18.332Z,1011.92
2019-05-14T11:27:13.267Z,1011.87
2019-05-14T11:28:10.296Z,1011.74
2019-05-14T11:29:07.286Z,1011.82
2019-05-14T11:30:04.376Z,1012.17
2019-05-14T11:31:01.374Z,1011.56
2019-05-14T11:31:58.297Z,1010.76
2019-05-14T11:32:55.381Z,1010.52